Time;durP1;ratioP1;P1;durP2;ratioP2;P2;SDS_P1;SDS_P2;PMS_P1;PMS_P2;Temp;Humidity;BMP_temperature;BMP_pressure;BME280_temperature;BME280_humidity;BME280_pressure;Samples;Min_cycle;Max_cycle;Signal;HPM_P1;HPM_P2
2023/06/07 00:00:11;;;;;;;6.80;3.97;;;;;;;15.62;68.48;101925.28;5052662;28;20028;-86
2023/06/07 00:02:38;;;;;;;4.57;3.28;;;;;;;15.59;68.06;101924.44;5051994;28;20108;-86
2023/06/07 00:05:04;;;;;;;4.05;2.95;;;;;;;15.64;67.30;101931.34;5053094;28;20029;-86
2023/06/07 00:07:29;;;;;;;4.13;2.80;;;;;;;15.64;68.53;101932.22;5052923;28;20025;-85
2023/06/07 00:09:55;;;;;;;6.23;2.80;;;;;;;15.64;68.37;101933.97;5051811;28;20488;-86
2023/06/07 00:12:20;;;;;;;4.97;3.03;;;;;;;15.62;68.16;101935.75;5052473;28;20049;-86
2023/06/07 00:14:45;;;;;;;3.40;2.60;;;;;;;15.61;67.76;101932.25;5052247;28;20370;-85
2023/06/07 00:17:11;;;;;;;5.97;3.30;;;;;;;15.47;69.50;101929.91;5051933;28;20020;-87
2023/06/07 00:19:36;;;;;;;7.00;3.67;;;;;;;15.51;69.30;101935.94;5052251;28;20040;-86
2023/06/07 00:22:02;;;;;;;5.80;3.43;;;;;;;15.43;68.93;101936.97;5052394;28;20545;-87
2023/06/07 00:24:27;;;;;;;8.90;4.40;;;;;;;15.37;70.34;101937.06;5052214;28;20151;-86
2023/06/07 00:26:53;;;;;;;6.45;3.80;;;;;;;15.35;68.83;101938.84;5052032;28;20029;-86
2023/06/07 00:29:24;;;;;;;7.50;4.03;;;;;;;15.27;70.28;101933.75;5052346;28;20057;-86
2023/06/07 00:31:50;;;;;;;8.27;4.20;;;;;;;15.23;70.85;101942.53;5031963;28;20041;-86
2023/06/07 00:34:16;;;;;;;9.60;4.30;;;;;;;15.18;70.06;101935.66;5032954;28;20054;-86
2023/06/07 00:36:41;;;;;;;7.07;3.70;;;;;;;15.17;69.65;101931.31;5032481;28;20017;-87
2023/06/07 00:39:06;;;;;;;4.70;3.27;;;;;;;15.18;69.15;101931.31;5031869;28;20021;-86
2023/06/07 00:41:31;;;;;;;7.73;4.10;;;;;;;15.16;70.39;101933.06;5032141;28;20029;-85
2023/06/07 00:44:02;;;;;;;7.60;3.73;;;;;;;15.09;69.85;101929.69;5032806;28;20021;-86
2023/06/07 00:46:29;;;;;;;6.28;3.40;;;;;;;15.12;70.12;101932.28;5032427;28;20041;-86
2023/06/07 00:48:56;;;;;;;9.90;4.10;;;;;;;15.10;70.24;101927.94;5032308;28;20025;-85
2023/06/07 00:51:21;;;;;;;;;;;;;;;15.11;69.75;101932.28;5032474;28;20025;-86
2023/06/07 00:53:48;;;;;;;6.07;3.13;;;;;;;15.09;69.57;101928.81;5032166;28;19913;-86
2023/06/07 00:56:15;;;;;;;9.48;4.45;;;;;;;15.00;70.52;101921.13;5032566;28;20041;-86
2023/06/07 00:58:40;;;;;;;;;;;;;;;14.98;70.49;101932.47;5042655;28;20029;-86
2023/06/07 01:01:08;;;;;;;6.93;3.80;;;;;;;14.98;69.64;101929.03;5051913;28;19913;-86
2023/06/07 01:03:36;;;;;;;5.00;3.22;;;;;;;14.98;69.64;101932.47;5051968;28;20531;-86
2023/06/07 01:06:02;;;;;;;6.70;3.42;;;;;;;14.97;69.71;101928.13;5051602;28;20059;-86
2023/06/07 01:08:28;;;;;;;6.40;3.88;;;;;;;14.86;70.58;101919.59;5052008;28;20024;-87
2023/06/07 01:10:56;;;;;;;8.32;3.90;;;;;;;14.88;69.75;101924.81;5051879;28;20039;-86
2023/06/07 01:13:22;;;;;;;4.95;3.30;;;;;;;14.88;71.52;101927.44;5051460;28;20500;-86
2023/06/07 01:15:51;;;;;;;5.55;3.38;;;;;;;14.82;69.92;101926.63;5052424;28;20021;-85
2023/06/07 01:18:18;;;;;;;5.25;3.20;;;;;;;14.85;68.92;101927.47;5052192;28;20045;-85
2023/06/07 01:20:48;;;;;;;5.80;3.33;;;;;;;14.82;70.57;101918.78;5051182;28;20033;-85
2023/06/07 01:23:14;;;;;;;4.93;3.15;;;;;;;14.79;69.45;101913.66;5051980;28;20036;-87
2023/06/07 01:25:40;;;;;;;3.25;2.72;;;;;;;14.74;69.02;101905.00;5052124;28;20033;-86
2023/06/07 01:28:06;;;;;;;3.70;2.83;;;;;;;14.76;71.03;101910.19;5051270;28;20025;-87
2023/06/07 01:30:32;;;;;;;4.15;2.95;;;;;;;14.73;69.92;101907.66;5055363;28;20025;-85
2023/06/07 01:33:00;;;;;;;5.57;3.20;;;;;;;14.73;71.22;101910.25;5056194;28;20025;-86
2023/06/07 01:35:27;;;;;;;8.48;3.47;;;;;;;14.69;71.09;101914.69;5055118;28;20059;-86
2023/06/07 01:37:53;;;;;;;6.35;3.30;;;;;;;14.65;71.79;101918.19;5055424;28;20025;-85
2023/06/07 01:40:20;;;;;;;6.65;3.67;;;;;;;14.57;72.21;101914.81;5055273;28;20033;-85
2023/06/07 01:42:46;;;;;;;6.55;3.92;;;;;;;14.47;71.21;101912.31;5055591;28;20040;-85
2023/06/07 01:45:12;;;;;;;6.45;3.65;;;;;;;14.45;70.91;101906.28;5055460;28;20048;-85
2023/06/07 01:47:41;;;;;;;5.05;3.40;;;;;;;14.49;71.47;101917.53;5054958;28;20835;-86
2023/06/07 01:50:08;;;;;;;7.28;3.92;;;;;;;14.45;71.92;101914.13;5055502;28;20052;-86
2023/06/07 01:52:34;;;;;;;11.05;5.22;;;;;;;14.34;73.31;101914.25;5055379;28;20108;-85
2023/06/07 01:55:00;;;;;;;9.23;4.73;;;;;;;14.29;73.48;101913.47;5054506;28;20031;-86
2023/06/07 01:57:35;;;;;;;;;;;;;;;14.28;73.39;101909.13;5054995;28;20057;-86
2023/06/07 02:00:09;;;;;;;14.10;5.30;;;;;;;14.16;74.63;101904.06;5055260;28;19967;-87
2023/06/07 02:02:49;;;;;;;9.95;5.05;;;;;;;14.12;72.62;101899.75;5054650;28;20035;-86
2023/06/07 02:05:17;;;;;;;11.35;5.30;;;;;;;14.04;74.50;101900.75;5055864;28;20029;-86
2023/06/07 02:07:51;;;;;;;7.53;4.45;;;;;;;14.07;73.06;101907.66;5055184;28;20104;-85
2023/06/07 02:10:20;;;;;;;10.38;4.57;;;;;;;14.00;73.83;101901.66;5054479;28;20028;-87
2023/06/07 02:12:47;;;;;;;6.90;3.88;;;;;;;13.98;73.35;101903.41;5054522;28;20530;-86
2023/06/07 02:15:13;;;;;;;7.85;3.97;;;;;;;13.97;75.25;101908.66;5054941;28;20021;-85
2023/06/07 02:18:01;;;;;;;9.10;4.03;;;;;;;13.96;74.69;101906.94;5054309;28;20358;-86
2023/06/07 02:20:30;;;;;;;8.00;4.38;;;;;;;13.91;74.39;101904.38;5055050;28;20453;-87
2023/06/07 02:22:56;;;;;;;8.38;4.50;;;;;;;13.83;73.79;101901.00;5054509;28;20025;-87
2023/06/07 02:25:25;;;;;;;;;;;;;;;13.90;73.78;101915.69;5055039;28;20428;-87
2023/06/07 02:27:51;;;;;;;9.32;4.63;;;;;;;13.85;73.49;101913.16;5054064;28;19921;-86
2023/06/07 02:30:16;;;;;;;9.80;4.63;;;;;;;13.80;75.98;101903.66;5054548;28;20032;-85
2023/06/07 02:32:45;;;;;;;14.97;6.27;;;;;;;13.71;75.67;101912.44;5052909;28;20035;-87
2023/06/07 02:35:11;;;;;;;11.32;5.47;;;;;;;13.64;74.97;101906.41;5054730;28;20657;-86
2023/06/07 02:37:37;;;;;;;7.50;4.50;;;;;;;13.68;74.48;101908.13;5053692;28;20484;-86
2023/06/07 02:40:05;;;;;;;7.20;3.93;;;;;;;13.72;74.18;101917.66;5054426;28;20025;-87
2023/06/07 02:42:31;;;;;;;5.53;3.65;;;;;;;13.72;73.83;101909.84;5054530;28;20465;-87
2023/06/07 02:44:56;;;;;;;6.07;3.47;;;;;;;13.69;73.99;101904.63;5054149;28;20032;-86
2023/06/07 02:47:27;;;;;;;6.73;3.97;;;;;;;13.66;74.24;101903.81;5054704;28;20088;-87
2023/06/07 02:49:53;;;;;;;9.75;4.82;;;;;;;13.66;76.22;101907.28;5054325;28;20029;-86
2023/06/07 02:52:18;;;;;;;8.70;4.73;;;;;;;13.61;73.72;101905.59;5053661;28;20017;-87
2023/06/07 02:54:43;;;;;;;6.57;3.90;;;;;;;13.65;73.84;101904.69;5054174;28;20052;-86
2023/06/07 02:57:09;;;;;;;5.27;3.27;;;;;;;13.65;73.20;101905.53;5053832;28;20466;-86
2023/06/07 02:59:34;;;;;;;5.43;3.07;;;;;;;13.72;73.82;101911.56;5053232;28;20032;-85
2023/06/07 03:01:59;;;;;;;4.33;2.70;;;;;;;13.71;73.16;101910.72;5054034;28;20051;-88
2023/06/07 03:04:26;;;;;;;3.37;2.77;;;;;;;13.70;74.66;101908.97;5054244;28;20028;-87
2023/06/07 03:06:52;;;;;;;8.43;4.68;;;;;;;13.68;74.68;101915.94;5053295;28;20036;-87
2023/06/07 03:09:18;;;;;;;8.47;4.00;;;;;;;13.64;73.29;101913.41;5054562;28;20024;-87
2023/06/07 03:11:43;;;;;;;10.75;5.18;;;;;;;13.52;76.00;101907.44;5053344;28;20543;-86
2023/06/07 03:14:09;;;;;;;11.03;5.10;;;;;;;13.51;74.44;101910.06;5053530;28;20021;-87
2023/06/07 03:16:34;;;;;;;6.43;3.93;;;;;;;13.50;74.06;101903.97;5053342;28;20107;-86
2023/06/07 03:18:59;;;;;;;7.23;3.73;;;;;;;13.51;74.35;101913.53;5052776;28;20400;-85
2023/06/07 03:21:28;;;;;;;5.30;3.57;;;;;;;13.53;74.01;101910.88;5052993;28;20025;-86
2023/06/07 03:23:53;;;;;;;6.97;3.60;;;;;;;13.51;76.35;101915.28;5051989;28;20028;-85
2023/06/07 03:26:19;;;;;;;8.00;4.10;;;;;;;13.47;74.25;101918.78;5053210;28;20026;-86
2023/06/07 03:28:44;;;;;;;11.40;5.17;;;;;;;13.34;75.64;101910.22;5053351;28;20445;-86
2023/06/07 03:31:10;;;;;;;11.30;5.43;;;;;;;13.31;77.24;101915.44;5053694;28;20029;-86
2023/06/07 03:33:35;;;;;;;9.70;4.80;;;;;;;13.27;75.98;101917.22;5052699;28;20064;-86
2023/06/07 03:36:01;;;;;;;9.77;4.27;;;;;;;13.26;75.75;101915.50;5053708;28;20104;-86
2023/06/07 03:38:26;;;;;;;8.67;3.90;;;;;;;13.20;75.51;101910.31;5053414;28;20435;-86
2023/06/07 03:41:03;;;;;;;5.73;3.70;;;;;;;13.21;75.83;101912.03;5045517;28;20041;-86
2023/06/07 03:43:29;;;;;;;5.55;3.50;;;;;;;13.25;75.42;101922.44;5053553;28;20021;-86
2023/06/07 03:45:54;;;;;;;4.37;3.03;;;;;;;13.28;75.57;101919.78;5053111;28;20530;-86
2023/06/07 03:48:19;;;;;;;4.33;3.13;;;;;;;13.20;74.92;101907.69;5052436;28;20017;-86
2023/06/07 03:50:44;;;;;;;7.70;3.77;;;;;;;13.25;76.31;101922.44;5050953;28;20033;-87
2023/06/07 03:53:11;;;;;;;7.93;3.97;;;;;;;13.23;76.15;101923.31;5059702;22;20139;-86
2023/06/07 03:55:41;;;;;;;;;;;;;;;13.23;75.65;101918.97;5052799;28;20025;-86
2023/06/07 03:58:07;;;;;;;11.68;5.28;;;;;;;13.11;78.45;101922.56;5053199;28;19917;-86
2023/06/07 04:00:32;;;;;;;11.83;5.57;;;;;;;13.07;78.78;101927.81;5052885;28;20535;-86
2023/06/07 04:02:58;;;;;;;13.53;5.93;;;;;;;12.89;77.48;101897.56;5052696;28;20108;-86
2023/06/07 04:05:24;;;;;;;11.20;5.30;;;;;;;12.96;78.44;101918.34;5053186;28;20029;-86
2023/06/07 04:07:49;;;;;;;12.43;5.55;;;;;;;12.94;77.91;101920.09;5052985;28;20086;-87
2023/06/07 04:10:15;;;;;;;11.23;5.30;;;;;;;13.02;77.04;101919.16;5051358;28;20041;-86
2023/06/07 04:12:43;;;;;;;8.40;4.60;;;;;;;12.99;76.58;101922.66;5052606;28;20477;-86
2023/06/07 04:15:09;;;;;;;11.52;5.13;;;;;;;12.98;79.05;101927.03;5051986;28;20484;-85
2023/06/07 04:17:34;;;;;;;10.30;5.20;;;;;;;12.90;77.51;101915.75;5052719;28;20025;-87
2023/06/07 04:19:59;;;;;;;8.97;4.40;;;;;;;12.98;76.66;101919.19;5052347;28;20489;-86
2023/06/07 04:22:25;;;;;;;9.60;4.60;;;;;;;12.98;77.65;101916.59;5052301;28;20077;-87
2023/06/07 04:24:51;;;;;;;9.83;4.93;;;;;;;12.92;77.88;101911.41;5052804;28;20028;-86
2023/06/07 04:27:18;;;;;;;7.63;4.10;;;;;;;13.03;76.85;101923.50;5052877;28;20100;-86
2023/06/07 04:29:43;;;;;;;9.02;4.55;;;;;;;13.02;78.39;101911.34;5051711;28;20028;-86
2023/06/07 04:32:09;;;;;;;7.47;4.00;;;;;;;13.06;76.21;101924.31;5052520;28;20021;-86
2023/06/07 04:34:56;;;;;;;8.17;4.20;;;;;;;13.10;77.36;101922.59;5032395;28;20029;-86
2023/06/07 04:37:21;;;;;;;8.60;4.30;;;;;;;13.15;77.43;101914.72;5027104;28;20037;-87
2023/06/07 04:39:48;;;;;;;9.33;4.10;;;;;;;13.11;76.91;101908.69;5032744;28;20048;-87
2023/06/07 04:42:16;;;;;;;8.25;4.07;;;;;;;13.18;77.11;101925.09;5048577;28;20029;-86
2023/06/07 04:44:42;;;;;;;11.02;5.35;;;;;;;13.05;78.77;101934.78;5051474;28;20060;-86
2023/06/07 04:47:09;;;;;;;11.25;5.32;;;;;;;12.97;78.82;101934.81;5052462;28;20025;-86
2023/06/07 04:49:35;;;;;;;;;;;;;;;12.88;80.05;101942.72;5052492;28;20032;-85
2023/06/07 04:52:01;;;;;;;12.48;5.68;;;;;;;12.80;80.07;101928.03;5051949;28;19912;-86
2023/06/07 04:54:28;;;;;;;10.80;4.90;;;;;;;12.86;78.59;101932.31;5052355;28;20049;-86
2023/06/07 04:56:53;;;;;;;10.88;4.82;;;;;;;12.94;78.85;101929.66;5051763;28;20052;-87
2023/06/07 04:59:18;;;;;;;9.90;4.47;;;;;;;12.96;79.08;101923.56;5052004;28;20029;-86
2023/06/07 05:01:44;;;;;;;9.70;4.90;;;;;;;12.97;79.34;101921.78;5051960;28;20057;-87
2023/06/07 05:04:09;;;;;;;10.83;4.50;;;;;;;12.98;78.71;101920.91;5055218;28;20024;-87
2023/06/07 05:06:41;;;;;;;11.37;5.20;;;;;;;13.01;78.87;101927.84;5055359;28;20100;-86
2023/06/07 05:09:06;;;;;;;8.93;4.53;;;;;;;13.00;78.28;101932.22;5056279;28;20021;-86
2023/06/07 05:11:32;;;;;;;13.67;6.33;;;;;;;12.95;79.75;101928.75;5055212;28;20029;-86
2023/06/07 05:13:57;;;;;;;12.43;5.47;;;;;;;12.98;79.85;101926.13;5056422;28;20094;-87
2023/06/07 05:16:24;;;;;;;10.10;5.17;;;;;;;12.96;79.45;101928.75;5056382;28;20029;-86
2023/06/07 05:18:49;;;;;;;10.73;5.30;;;;;;;13.02;79.87;101935.66;5055255;28;20017;-86
2023/06/07 05:21:15;;;;;;;8.03;4.70;;;;;;;13.05;79.87;101933.06;5055858;28;20384;-86
2023/06/07 05:23:41;;;;;;;13.80;6.15;;;;;;;13.04;79.67;101936.53;5055931;28;20223;-85
2023/06/07 05:26:07;;;;;;;10.40;5.10;;;;;;;13.12;79.49;101944.25;5055032;28;20032;-85
2023/06/07 05:28:34;;;;;;;12.57;5.17;;;;;;;13.20;78.92;101945.06;5055690;28;20032;-88
2023/06/07 05:30:59;;;;;;;10.70;5.40;;;;;;;13.20;79.23;101938.97;5056107;28;20025;-84
2023/06/07 05:33:34;;;;;;;16.77;7.20;;;;;;;13.07;79.34;101931.28;5055026;28;20469;-85
2023/06/07 05:36:00;;;;;;;12.13;6.10;;;;;;;13.06;79.26;101942.56;5056074;28;20040;-87
2023/06/07 05:38:25;;;;;;;9.17;5.13;;;;;;;13.15;78.40;101936.41;5056133;28;20025;-86
2023/06/07 05:40:50;;;;;;;9.07;4.77;;;;;;;13.30;78.01;101943.25;5054781;28;20029;-86
2023/06/07 05:43:22;;;;;;;10.93;5.23;;;;;;;13.41;77.85;101944.03;5055548;28;20032;-85
2023/06/07 05:45:47;;;;;;;7.40;4.20;;;;;;;13.53;77.77;101939.56;5055400;28;20066;-87
2023/06/07 05:48:12;;;;;;;7.10;3.90;;;;;;;13.66;77.15;101941.19;5055255;28;20021;-86
2023/06/07 05:50:38;;;;;;;6.37;3.73;;;;;;;13.75;76.41;101938.47;5055175;28;20478;-87
2023/06/07 05:53:06;;;;;;;6.47;3.70;;;;;;;13.88;76.02;101940.94;5055224;28;20080;-86
2023/06/07 05:55:31;;;;;;;9.15;3.88;;;;;;;13.97;75.07;101942.59;5054320;28;20033;-86
2023/06/07 05:57:57;;;;;;;5.37;3.37;;;;;;;14.01;75.38;101941.69;5055110;28;20025;-84
2023/06/07 06:00:22;;;;;;;5.03;3.20;;;;;;;14.13;74.75;101946.72;5055408;28;20025;-84
2023/06/07 06:02:47;;;;;;;4.27;2.90;;;;;;;14.28;75.12;101956.13;5054502;28;20085;-83
2023/06/07 06:05:15;;;;;;;7.00;3.80;;;;;;;14.27;74.38;101958.75;5055365;28;20424;-82
2023/06/07 06:07:41;;;;;;;13.35;5.90;;;;;;;14.16;74.70;101964.13;5054413;28;20028;-82
2023/06/07 06:10:07;;;;;;;17.47;6.90;;;;;;;14.01;74.88;101975.63;5055272;28;20359;-81
2023/06/07 06:12:32;;;;;;;11.70;5.10;;;;;;;13.98;75.03;101958.22;5054852;28;20775;-82
2023/06/07 06:14:59;;;;;;;9.03;4.30;;;;;;;14.05;74.79;101962.50;5053532;28;20025;-81
2023/06/07 06:17:30;;;;;;;7.18;3.95;;;;;;;14.05;75.08;101949.47;5052530;28;20516;-81
2023/06/07 06:19:55;;;;;;;3.83;3.05;;;;;;;14.30;74.24;101962.19;5055235;28;20104;-87
2023/06/07 06:22:39;;;;;;;5.20;3.20;;;;;;;14.51;73.85;101954.97;5054574;28;20573;-88
2023/06/07 06:25:05;;;;;;;16.15;5.93;;;;;;;14.55;72.56;101966.22;5041998;28;20041;-86
2023/06/07 06:27:30;;;;;;;14.90;6.25;;;;;;;14.36;73.24;101969.06;5054695;28;20382;-86
2023/06/07 06:30:08;;;;;;;11.73;5.53;;;;;;;14.38;73.19;101976.91;5054044;28;20025;-87
2023/06/07 06:32:34;;;;;;;8.50;4.40;;;;;;;14.44;73.75;101968.97;5053964;28;20031;-86
2023/06/07 06:34:59;;;;;;;11.13;4.73;;;;;;;14.48;73.60;101950.63;5054267;28;20025;-86
2023/06/07 06:37:25;;;;;;;9.70;4.33;;;;;;;14.58;73.13;101950.53;5054008;28;20033;-87
2023/06/07 06:39:51;;;;;;;13.45;5.93;;;;;;;14.41;72.99;101956.81;5054166;28;20283;-86
2023/06/07 06:42:25;;;;;;;11.60;5.77;;;;;;;14.33;72.85;101969.13;5046731;28;20410;-83
2023/06/07 06:44:51;;;;;;;15.13;5.85;;;;;;;14.29;72.89;101973.53;5053874;28;20024;-85
2023/06/07 06:47:25;;;;;;;10.93;5.20;;;;;;;14.34;73.27;101982.16;5054399;28;20550;-85
2023/06/07 06:49:51;;;;;;;13.13;5.25;;;;;;;14.33;72.81;101977.81;5053163;28;20036;-84
2023/06/07 06:52:16;;;;;;;9.57;4.30;;;;;;;14.34;72.87;101974.31;5053614;28;20555;-84
2023/06/07 06:55:07;;;;;;;8.10;4.47;;;;;;;14.48;72.70;101991.56;5053622;28;20059;-85
2023/06/07 06:57:43;;;;;;;10.18;4.03;;;;;;;14.51;72.41;101968.03;5053016;28;20036;-85
2023/06/07 07:00:10;;;;;;;10.80;4.70;;;;;;;14.58;72.27;101981.88;5053834;28;20071;-87
2023/06/07 07:02:35;;;;;;;8.15;3.85;;;;;;;14.70;72.34;101994.75;5052911;28;20021;-83
2023/06/07 07:05:03;;;;;;;7.93;4.50;;;;;;;14.79;71.72;101992.03;5052614;28;20120;-83
2023/06/07 07:07:29;;;;;;;18.75;6.30;;;;;;;14.57;71.38;101980.13;5045841;28;20498;-83
2023/06/07 07:09:57;;;;;;;24.23;6.87;;;;;;;14.61;71.84;101997.47;5054115;28;20112;-84
2023/06/07 07:12:23;;;;;;;28.38;8.77;;;;;;;14.53;71.25;102002.78;5050040;28;20041;-84
2023/06/07 07:14:49;;;;;;;20.13;6.83;;;;;;;14.62;71.97;102005.31;5053658;28;20044;-86
2023/06/07 07:17:14;;;;;;;17.55;5.90;;;;;;;14.63;71.99;101991.38;5053844;28;20107;-85
2023/06/07 07:19:53;;;;;;;20.27;6.17;;;;;;;14.87;71.79;101984.06;5052899;28;20112;-86
2023/06/07 07:22:18;;;;;;;12.20;5.13;;;;;;;15.26;70.70;101997.41;5053962;28;20032;-86
2023/06/07 07:24:44;;;;;;;10.23;4.23;;;;;;;15.55;70.84;101993.41;5053036;28;20487;-86
2023/06/07 07:27:10;;;;;;;8.97;4.13;;;;;;;15.75;69.69;101990.44;5051629;28;20029;-84
2023/06/07 07:29:53;;;;;;;12.73;5.47;;;;;;;15.96;68.03;101992.72;5053239;28;20017;-85
2023/06/07 07:32:19;;;;;;;11.50;4.50;;;;;;;16.12;68.33;101988.03;5052821;28;20159;-85
2023/06/07 07:34:44;;;;;;;9.07;4.20;;;;;;;16.32;67.72;102001.59;5052592;28;20128;-86
2023/06/07 07:37:09;;;;;;;12.50;5.30;;;;;;;16.33;66.08;102012.91;5052405;28;20059;-87
2023/06/07 07:39:38;;;;;;;8.13;4.23;;;;;;;16.34;67.78;102007.66;5053540;28;20021;-90
2023/06/07 07:42:05;;;;;;;8.82;3.90;;;;;;;16.42;66.24;102011.88;5053999;28;20120;-90
2023/06/07 07:44:31;;;;;;;10.45;4.05;;;;;;;16.39;67.37;102001.44;5053266;28;20029;-89
2023/06/07 07:46:57;;;;;;;12.13;4.65;;;;;;;16.42;66.31;102004.00;5053145;28;20078;-87
2023/06/07 07:49:22;;;;;;;14.00;5.37;;;;;;;16.33;66.71;102010.28;5053651;28;20423;-87
2023/06/07 07:51:50;;;;;;;15.17;5.80;;;;;;;16.15;65.02;102015.03;5053203;28;20438;-89
2023/06/07 07:54:16;;;;;;;13.50;5.03;;;;;;;16.01;65.21;102015.31;5053109;28;20037;-89
2023/06/07 07:56:43;;;;;;;9.80;4.77;;;;;;;16.16;66.73;102016.75;5054341;28;20024;-90
2023/06/07 07:59:08;;;;;;;14.02;5.85;;;;;;;16.21;65.80;102014.88;5053525;28;20025;-89
2023/06/07 08:01:34;;;;;;;12.30;5.10;;;;;;;16.31;66.05;102020.81;5053262;28;20147;-88
2023/06/07 08:03:59;;;;;;;8.87;4.53;;;;;;;16.48;66.21;102017.84;5054098;28;20021;-90
2023/06/07 08:06:25;;;;;;;8.50;4.40;;;;;;;16.61;64.97;102025.44;5053093;28;20040;-87
2023/06/07 08:08:53;;;;;;;13.00;5.47;;;;;;;16.58;64.37;102020.25;5052256;28;20021;-87
2023/06/07 08:11:20;;;;;;;13.73;4.63;;;;;;;16.67;65.00;102023.53;5053187;28;20831;-89
2023/06/07 08:13:46;;;;;;;9.75;4.55;;;;;;;17.01;65.08;102013.22;5053485;28;20404;-89
2023/06/07 08:16:11;;;;;;;9.83;4.30;;;;;;;17.40;64.04;102008.75;5052910;28;20062;-88
2023/06/07 08:18:36;;;;;;;11.10;4.40;;;;;;;17.73;63.41;102005.31;5053219;28;20052;-88
2023/06/07 08:21:04;;;;;;;6.67;3.40;;;;;;;18.14;62.75;102007.69;5053198;28;20051;-88
2023/06/07 08:23:30;;;;;;;6.45;3.60;;;;;;;18.44;60.98;102012.97;5052658;28;20047;-88
2023/06/07 08:25:57;;;;;;;9.33;4.20;;;;;;;18.52;60.75;102013.59;5053117;28;20520;-88
2023/06/07 08:28:23;;;;;;;13.60;5.47;;;;;;;18.46;60.09;102013.78;5052834;28;20024;-89
2023/06/07 08:30:49;;;;;;;11.38;5.00;;;;;;;18.57;59.81;102009.06;5052598;28;20021;-89
2023/06/07 08:33:14;;;;;;;13.53;5.10;;;;;;;18.49;59.38;102004.03;5053425;28;20025;-87
2023/06/07 08:35:39;;;;;;;15.17;5.27;;;;;;;18.50;59.64;102003.13;5052645;28;20470;-89
2023/06/07 08:38:04;;;;;;;9.67;4.50;;;;;;;18.76;59.24;102005.88;5053620;28;20465;-89
2023/06/07 08:40:32;;;;;;;11.97;4.40;;;;;;;18.96;59.13;102005.28;5052928;28;20029;-92
2023/06/07 08:42:57;;;;;;;9.80;4.32;;;;;;;19.16;57.35;101998.50;5055151;28;20415;-91
2023/06/07 08:45:22;;;;;;;8.93;4.20;;;;;;;19.33;58.50;102000.56;5053954;28;20044;-92
2023/06/07 08:47:53;;;;;;;5.80;3.30;;;;;;;19.54;58.72;101998.94;5060395;22;20045;-92
2023/06/07 08:50:22;;;;;;;9.23;3.67;;;;;;;19.75;57.23;101992.06;5053778;28;20037;-92
2023/06/07 08:52:51;;;;;;;4.65;3.20;;;;;;;19.82;56.98;101996.19;5053694;28;20025;-93
2023/06/07 08:55:16;;;;;;;9.52;4.13;;;;;;;19.88;57.05;101998.66;5053752;28;20358;-93
2023/06/07 08:57:45;;;;;;;6.47;2.90;;;;;;;19.99;57.53;102002.69;5060697;22;20041;-92
2023/06/07 09:00:12;;;;;;;9.45;4.22;;;;;;;20.11;54.05;102009.25;5053510;28;20043;-93
2023/06/07 09:02:37;;;;;;;14.00;4.72;;;;;;;19.92;56.08;102003.81;5053234;28;20025;-92
2023/06/07 09:05:06;;;;;;;4.80;3.00;;;;;;;20.16;56.95;102009.97;5053712;28;20109;-93
2023/06/07 09:07:32;;;;;;;5.45;2.75;;;;;;;20.44;56.45;102007.13;5053316;28;20489;-95
2023/06/07 09:09:58;;;;;;;9.27;4.13;;;;;;;20.52;53.62;101999.78;5053458;28;20032;-91
2023/06/07 09:12:29;;;;;;;12.73;4.10;;;;;;;20.50;53.27;102003.41;5053321;28;20021;-92
2023/06/07 09:14:54;;;;;;;7.90;3.53;;;;;;;20.52;55.12;102001.56;5053125;28;20049;-92
2023/06/07 09:17:20;;;;;;;10.27;4.03;;;;;;;20.59;52.89;102012.75;5053347;28;20052;-94
2023/06/07 09:19:45;;;;;;;11.15;4.30;;;;;;;20.52;52.66;102007.69;5053214;28;20021;-94
2023/06/07 09:22:17;;;;;;;9.03;4.13;;;;;;;20.44;54.49;102007.13;5053055;28;20641;-86
2023/06/07 09:24:42;;;;;;;6.88;3.90;;;;;;;20.39;54.43;102000.31;5051881;28;20130;-83
2023/06/07 09:27:09;;;;;;;17.52;5.88;;;;;;;20.21;53.15;102016.78;5052995;28;20113;-90
2023/06/07 09:29:42;;;;;;;13.70;4.85;;;;;;;20.03;54.72;102005.13;5052872;28;20025;-91
2023/06/07 09:32:20;;;;;;;10.80;4.40;;;;;;;20.23;54.24;102013.22;5052456;28;20033;-87
2023/06/07 09:34:46;;;;;;;10.90;4.60;;;;;;;20.40;53.57;102007.31;5052242;28;20028;-90
2023/06/07 09:37:11;;;;;;;12.35;4.85;;;;;;;20.30;53.97;102012.94;5052444;28;20102;-88
2023/06/07 09:39:37;;;;;;;10.80;5.20;;;;;;;20.21;53.73;102011.50;5051845;28;20060;-90
2023/06/07 09:42:14;;;;;;;13.68;5.47;;;;;;;19.68;53.72;102003.75;5052224;28;20056;-87
2023/06/07 09:44:39;;;;;;;;;;;;;;;19.64;54.94;102007.41;5052446;28;20013;-87
2023/06/07 09:47:19;;;;;;;8.97;3.90;;;;;;;19.83;55.58;102003.19;5051879;28;20361;-89
2023/06/07 09:49:44;;;;;;;14.88;5.85;;;;;;;19.45;54.49;102000.16;5052506;28;20024;-88
2023/06/07 09:52:14;;;;;;;13.90;5.33;;;;;;;19.39;56.14;102001.22;5056075;28;20087;-89
2023/06/07 09:54:45;;;;;;;16.73;6.68;;;;;;;19.07;56.04;101997.91;5061814;22;20064;-87
2023/06/07 09:57:23;;;;;;;13.70;5.30;;;;;;;19.02;56.21;102002.44;5055843;28;20047;-85
2023/06/07 10:00:13;;;;;;;16.92;6.18;;;;;;;18.79;57.87;101998.72;5054996;28;20061;-86
2023/06/07 10:02:39;;;;;;;13.95;5.72;;;;;;;18.84;57.22;102011.75;5055196;28;20469;-85
2023/06/07 10:05:05;;;;;;;14.23;5.90;;;;;;;18.94;57.43;101999.19;5055388;28;20057;-87
2023/06/07 10:07:36;;;;;;;10.37;4.90;;;;;;;19.11;58.03;101998.66;5054009;28;20029;-87
2023/06/07 10:10:02;;;;;;;14.43;5.93;;;;;;;19.09;56.77;101990.78;5055262;28;20048;-86
2023/06/07 10:12:30;;;;;;;11.93;5.65;;;;;;;19.17;56.97;101987.91;5055387;28;20392;-86
2023/06/07 10:15:00;;;;;;;8.93;4.30;;;;;;;19.31;57.43;101989.22;5054801;28;20032;-87
2023/06/07 10:17:32;;;;;;;8.55;4.05;;;;;;;19.52;56.71;101983.22;5054996;28;20033;-87
2023/06/07 10:20:00;;;;;;;6.32;3.40;;;;;;;19.78;55.70;101993.72;5055154;28;20025;-87
2023/06/07 10:22:32;;;;;;;8.90;3.60;;;;;;;19.91;56.00;101992.41;5053589;28;20032;-87
2023/06/07 10:25:20;;;;;;;4.82;2.90;;;;;;;20.17;56.23;101996.72;5055195;28;20036;-87
2023/06/07 10:28:09;;;;;;;5.65;2.90;;;;;;;20.31;54.90;101996.22;5054737;28;20469;-87
2023/06/07 10:30:36;;;;;;;12.10;5.20;;;;;;;20.17;54.03;101990.59;5053816;28;20394;-87
2023/06/07 10:33:04;;;;;;;10.65;4.75;;;;;;;20.01;54.79;101991.16;5054857;28;20025;-87
2023/06/07 10:35:30;;;;;;;13.93;5.28;;;;;;;19.93;53.80;101998.50;5053813;28;20041;-86
2023/06/07 10:37:56;;;;;;;11.50;5.22;;;;;;;19.79;54.69;102003.34;5054962;28;20029;-87
2023/06/07 10:40:22;;;;;;;14.82;5.50;;;;;;;19.60;55.37;101999.59;5054706;28;20021;-88
2023/06/07 10:42:49;;;;;;;;;;;;;;;19.44;56.22;101993.16;5053848;28;20100;-86
2023/06/07 10:45:19;;;;;;;10.45;4.80;;;;;;;19.56;56.52;101989.22;5054181;28;19912;-87
2023/06/07 10:47:47;;;;;;;12.02;5.53;;;;;;;19.59;56.55;101987.34;5054247;28;20501;-86
2023/06/07 10:50:27;;;;;;;7.03;4.00;;;;;;;19.77;56.13;101990.25;5053709;28;20030;-87
2023/06/07 10:52:56;;;;;;;10.77;4.97;;;;;;;19.80;56.13;101982.25;5053767;28;20120;-86
2023/06/07 10:55:32;;;;;;;13.02;5.15;;;;;;;19.75;55.81;101978.91;5053522;28;20025;-85
2023/06/07 10:57:59;;;;;;;12.00;4.88;;;;;;;19.73;56.02;101978.97;5053586;28;20033;-86
2023/06/07 11:00:33;;;;;;;8.02;3.88;;;;;;;19.84;55.81;101977.72;5053078;28;20028;-86
2023/06/07 11:03:05;;;;;;;6.35;3.63;;;;;;;19.93;55.86;101982.69;5052681;28;20465;-86
2023/06/07 11:05:53;;;;;;;8.13;4.00;;;;;;;19.99;55.93;101984.22;5053642;28;20029;-85
2023/06/07 11:08:27;;;;;;;5.10;3.20;;;;;;;20.11;56.41;101985.53;5045700;28;20452;-86
2023/06/07 11:10:59;;;;;;;3.67;2.60;;;;;;;20.27;56.66;101981.41;5052277;28;20474;-87
2023/06/07 11:13:25;;;;;;;4.43;2.60;;;;;;;20.44;56.48;101979.91;5052438;28;20123;-86
2023/06/07 11:15:51;;;;;;;5.28;3.15;;;;;;;20.63;55.28;101977.41;5054263;28;20090;-89
2023/06/07 11:18:16;;;;;;;5.30;2.97;;;;;;;20.67;54.06;101971.94;5054046;28;20247;-95
2023/06/07 11:20:44;;;;;;;7.43;4.10;;;;;;;20.66;53.90;101969.38;5057104;28;20051;-86
2023/06/07 11:23:22;;;;;;;8.82;3.88;;;;;;;20.60;55.03;101965.19;5054043;28;20112;-80
2023/06/07 11:25:51;;;;;;;5.63;3.25;;;;;;;20.62;55.37;101975.69;5052739;28;20032;-82